sensor_id;sensor_type;location;lat;lon;timestamp;P1;durP1;ratioP1;P2;durP2;ratioP2
11847;SDS011;5983;49.966;8.052;2022-12-29T00:01:41;3.37;;;1.57;;
11847;SDS011;5983;49.966;8.052;2022-12-29T00:04:09;3.10;;;1.63;;
11847;SDS011;5983;49.966;8.052;2022-12-29T00:06:40;3.50;;;1.30;;
11847;SDS011;5983;49.966;8.052;2022-12-29T00:09:09;3.70;;;1.63;;
11847;SDS011;5983;49.966;8.052;2022-12-29T00:11:37;2.50;;;1.50;;
11847;SDS011;5983;49.966;8.052;2022-12-29T00:14:04;2.30;;;1.93;;
11847;SDS011;5983;49.966;8.052;2022-12-29T00:16:49;1.53;;;1.13;;
11847;SDS011;5983;49.966;8.052;2022-12-29T00:19:16;2.93;;;1.60;;
11847;SDS011;5983;49.966;8.052;2022-12-29T00:22:01;4.37;;;1.40;;
11847;SDS011;5983;49.966;8.052;2022-12-29T00:24:47;2.70;;;1.10;;
11847;SDS011;5983;49.966;8.052;2022-12-29T00:27:32;3.30;;;1.50;;
11847;SDS011;5983;49.966;8.052;2022-12-29T00:30:17;4.47;;;1.60;;
11847;SDS011;5983;49.966;8.052;2022-12-29T00:33:08;2.33;;;1.17;;
11847;SDS011;5983;49.966;8.052;2022-12-29T00:35:54;3.60;;;1.33;;
11847;SDS011;5983;49.966;8.052;2022-12-29T00:38:26;1.60;;;1.30;;
11847;SDS011;5983;49.966;8.052;2022-12-29T00:41:15;2.07;;;1.17;;
11847;SDS011;5983;49.966;8.052;2022-12-29T00:44:00;2.40;;;1.13;;
11847;SDS011;5983;49.966;8.052;2022-12-29T00:46:35;1.43;;;1.07;;
11847;SDS011;5983;49.966;8.052;2022-12-29T00:49:04;1.13;;;1.03;;
11847;SDS011;5983;49.966;8.052;2022-12-29T00:51:49;3.47;;;1.20;;
11847;SDS011;5983;49.966;8.052;2022-12-29T00:54:17;1.77;;;1.33;;
11847;SDS011;5983;49.966;8.052;2022-12-29T00:56:46;4.30;;;1.80;;
11847;SDS011;5983;49.966;8.052;2022-12-29T00:59:14;2.40;;;1.30;;
11847;SDS011;5983;49.966;8.052;2022-12-29T01:01:43;2.93;;;1.27;;
11847;SDS011;5983;49.966;8.052;2022-12-29T01:04:10;4.27;;;2.00;;
11847;SDS011;5983;49.966;8.052;2022-12-29T01:06:39;4.60;;;1.50;;
11847;SDS011;5983;49.966;8.052;2022-12-29T01:09:07;3.00;;;1.70;;
11847;SDS011;5983;49.966;8.052;2022-12-29T01:11:54;3.33;;;2.10;;
11847;SDS011;5983;49.966;8.052;2022-12-29T01:14:22;2.80;;;1.47;;
11847;SDS011;5983;49.966;8.052;2022-12-29T01:16:50;2.07;;;1.37;;
11847;SDS011;5983;49.966;8.052;2022-12-29T01:19:18;1.93;;;1.10;;
11847;SDS011;5983;49.966;8.052;2022-12-29T01:21:45;3.13;;;1.03;;
11847;SDS011;5983;49.966;8.052;2022-12-29T01:24:13;3.20;;;1.40;;
11847;SDS011;5983;49.966;8.052;2022-12-29T01:26:40;3.33;;;1.10;;
11847;SDS011;5983;49.966;8.052;2022-12-29T01:29:09;1.90;;;1.30;;
11847;SDS011;5983;49.966;8.052;2022-12-29T01:31:36;3.67;;;1.10;;
11847;SDS011;5983;49.966;8.052;2022-12-29T01:34:03;2.10;;;1.07;;
11847;SDS011;5983;49.966;8.052;2022-12-29T01:36:30;1.57;;;1.07;;
11847;SDS011;5983;49.966;8.052;2022-12-29T01:38:58;1.13;;;1.03;;
11847;SDS011;5983;49.966;8.052;2022-12-29T01:41:25;2.47;;;1.53;;
11847;SDS011;5983;49.966;8.052;2022-12-29T01:43:57;2.20;;;1.70;;
11847;SDS011;5983;49.966;8.052;2022-12-29T01:46:29;3.50;;;1.53;;
11847;SDS011;5983;49.966;8.052;2022-12-29T01:49:03;2.60;;;1.43;;
11847;SDS011;5983;49.966;8.052;2022-12-29T01:51:41;1.57;;;1.17;;
11847;SDS011;5983;49.966;8.052;2022-12-29T01:54:15;1.77;;;1.17;;
11847;SDS011;5983;49.966;8.052;2022-12-29T01:56:48;6.00;;;3.30;;
11847;SDS011;5983;49.966;8.052;2022-12-29T01:59:19;2.70;;;1.33;;
11847;SDS011;5983;49.966;8.052;2022-12-29T02:01:53;4.30;;;1.20;;
11847;SDS011;5983;49.966;8.052;2022-12-29T02:04:21;1.53;;;1.00;;
11847;SDS011;5983;49.966;8.052;2022-12-29T02:06:53;4.13;;;2.10;;
11847;SDS011;5983;49.966;8.052;2022-12-29T02:09:26;4.40;;;2.70;;
11847;SDS011;5983;49.966;8.052;2022-12-29T02:11:53;7.17;;;2.70;;
11847;SDS011;5983;49.966;8.052;2022-12-29T02:14:21;6.80;;;2.90;;
11847;SDS011;5983;49.966;8.052;2022-12-29T02:16:57;10.87;;;6.07;;
11847;SDS011;5983;49.966;8.052;2022-12-29T02:22:54;6.47;;;3.50;;
11847;SDS011;5983;49.966;8.052;2022-12-29T02:25:52;2.53;;;1.40;;
11847;SDS011;5983;49.966;8.052;2022-12-29T02:29:00;2.37;;;1.20;;
11847;SDS011;5983;49.966;8.052;2022-12-29T02:31:54;2.97;;;1.53;;
11847;SDS011;5983;49.966;8.052;2022-12-29T02:34:31;3.63;;;1.23;;
11847;SDS011;5983;49.966;8.052;2022-12-29T02:37:14;1.83;;;1.20;;
11847;SDS011;5983;49.966;8.052;2022-12-29T02:39:55;1.60;;;1.03;;
11847;SDS011;5983;49.966;8.052;2022-12-29T02:42:33;2.70;;;1.30;;
11847;SDS011;5983;49.966;8.052;2022-12-29T02:45:11;2.87;;;0.97;;
11847;SDS011;5983;49.966;8.052;2022-12-29T02:47:49;1.20;;;0.90;;
11847;SDS011;5983;49.966;8.052;2022-12-29T02:50:25;1.30;;;1.07;;
11847;SDS011;5983;49.966;8.052;2022-12-29T02:52:59;6.77;;;1.30;;
11847;SDS011;5983;49.966;8.052;2022-12-29T02:55:31;0.87;;;0.70;;
11847;SDS011;5983;49.966;8.052;2022-12-29T02:58:09;4.80;;;1.10;;
11847;SDS011;5983;49.966;8.052;2022-12-29T03:00:49;1.17;;;0.73;;
11847;SDS011;5983;49.966;8.052;2022-12-29T03:03:47;2.90;;;0.87;;
11847;SDS011;5983;49.966;8.052;2022-12-29T03:06:30;1.80;;;0.87;;
11847;SDS011;5983;49.966;8.052;2022-12-29T03:09:11;1.87;;;0.83;;
11847;SDS011;5983;49.966;8.052;2022-12-29T03:11:50;4.03;;;1.10;;
11847;SDS011;5983;49.966;8.052;2022-12-29T03:14:36;1.00;;;0.80;;
11847;SDS011;5983;49.966;8.052;2022-12-29T03:17:34;1.73;;;0.80;;
11847;SDS011;5983;49.966;8.052;2022-12-29T03:20:13;0.90;;;0.80;;
11847;SDS011;5983;49.966;8.052;2022-12-29T03:22:47;1.10;;;0.77;;
11847;SDS011;5983;49.966;8.052;2022-12-29T03:25:21;1.70;;;0.70;;
11847;SDS011;5983;49.966;8.052;2022-12-29T03:27:56;1.80;;;0.83;;
11847;SDS011;5983;49.966;8.052;2022-12-29T03:30:28;3.27;;;0.80;;
11847;SDS011;5983;49.966;8.052;2022-12-29T03:32:59;2.40;;;1.10;;
11847;SDS011;5983;49.966;8.052;2022-12-29T03:35:32;5.00;;;1.17;;
11847;SDS011;5983;49.966;8.052;2022-12-29T03:38:06;2.90;;;1.27;;
11847;SDS011;5983;49.966;8.052;2022-12-29T03:40:40;1.93;;;0.90;;
11847;SDS011;5983;49.966;8.052;2022-12-29T03:43:11;3.17;;;1.53;;
11847;SDS011;5983;49.966;8.052;2022-12-29T03:45:39;2.60;;;1.00;;
11847;SDS011;5983;49.966;8.052;2022-12-29T03:48:06;1.30;;;0.80;;
11847;SDS011;5983;49.966;8.052;2022-12-29T03:50:34;1.13;;;0.90;;
11847;SDS011;5983;49.966;8.052;2022-12-29T03:53:01;1.43;;;0.87;;
11847;SDS011;5983;49.966;8.052;2022-12-29T03:55:28;2.57;;;0.87;;
11847;SDS011;5983;49.966;8.052;2022-12-29T03:57:55;1.27;;;1.00;;
11847;SDS011;5983;49.966;8.052;2022-12-29T04:00:22;1.30;;;1.00;;
11847;SDS011;5983;49.966;8.052;2022-12-29T04:02:49;1.67;;;1.20;;
11847;SDS011;5983;49.966;8.052;2022-12-29T04:05:16;2.17;;;1.10;;
11847;SDS011;5983;49.966;8.052;2022-12-29T04:07:45;6.27;;;1.00;;
11847;SDS011;5983;49.966;8.052;2022-12-29T04:10:12;1.27;;;0.80;;
11847;SDS011;5983;49.966;8.052;2022-12-29T04:12:39;2.67;;;1.17;;
11847;SDS011;5983;49.966;8.052;2022-12-29T04:15:07;4.40;;;1.00;;
11847;SDS011;5983;49.966;8.052;2022-12-29T04:17:35;3.23;;;1.07;;
11847;SDS011;5983;49.966;8.052;2022-12-29T04:20:03;2.10;;;0.73;;
11847;SDS011;5983;49.966;8.052;2022-12-29T04:22:50;1.47;;;1.00;;
11847;SDS011;5983;49.966;8.052;2022-12-29T04:25:25;1.80;;;1.10;;
11847;SDS011;5983;49.966;8.052;2022-12-29T04:27:52;1.67;;;1.07;;
11847;SDS011;5983;49.966;8.052;2022-12-29T04:30:19;2.47;;;1.07;;
11847;SDS011;5983;49.966;8.052;2022-12-29T04:32:46;3.03;;;1.40;;
11847;SDS011;5983;49.966;8.052;2022-12-29T04:35:13;2.17;;;0.80;;
11847;SDS011;5983;49.966;8.052;2022-12-29T04:37:41;1.30;;;0.90;;
11847;SDS011;5983;49.966;8.052;2022-12-29T04:40:10;2.40;;;1.20;;
11847;SDS011;5983;49.966;8.052;2022-12-29T04:42:37;2.17;;;1.10;;
11847;SDS011;5983;49.966;8.052;2022-12-29T04:45:05;2.40;;;1.00;;
11847;SDS011;5983;49.966;8.052;2022-12-29T04:47:33;1.33;;;0.70;;
11847;SDS011;5983;49.966;8.052;2022-12-29T04:50:00;1.63;;;0.73;;
11847;SDS011;5983;49.966;8.052;2022-12-29T04:52:27;2.13;;;1.03;;
11847;SDS011;5983;49.966;8.052;2022-12-29T04:54:54;3.27;;;1.07;;
11847;SDS011;5983;49.966;8.052;2022-12-29T04:57:22;2.83;;;0.93;;
11847;SDS011;5983;49.966;8.052;2022-12-29T04:59:49;1.00;;;0.90;;
11847;SDS011;5983;49.966;8.052;2022-12-29T05:02:17;2.53;;;0.90;;
11847;SDS011;5983;49.966;8.052;2022-12-29T05:04:43;1.30;;;0.90;;
11847;SDS011;5983;49.966;8.052;2022-12-29T05:07:11;3.57;;;1.03;;
11847;SDS011;5983;49.966;8.052;2022-12-29T05:09:38;2.43;;;1.43;;
11847;SDS011;5983;49.966;8.052;2022-12-29T05:12:06;1.97;;;1.40;;
11847;SDS011;5983;49.966;8.052;2022-12-29T05:14:35;2.30;;;0.80;;
11847;SDS011;5983;49.966;8.052;2022-12-29T05:17:01;2.10;;;0.97;;
11847;SDS011;5983;49.966;8.052;2022-12-29T05:19:28;4.87;;;1.00;;
11847;SDS011;5983;49.966;8.052;2022-12-29T05:21:56;4.90;;;1.53;;
11847;SDS011;5983;49.966;8.052;2022-12-29T05:24:23;1.20;;;1.03;;
11847;SDS011;5983;49.966;8.052;2022-12-29T05:26:50;1.30;;;0.93;;
11847;SDS011;5983;49.966;8.052;2022-12-29T05:29:17;3.10;;;1.00;;
11847;SDS011;5983;49.966;8.052;2022-12-29T05:31:45;3.40;;;0.87;;
11847;SDS011;5983;49.966;8.052;2022-12-29T05:34:12;4.13;;;1.47;;
11847;SDS011;5983;49.966;8.052;2022-12-29T05:36:40;2.97;;;0.87;;
11847;SDS011;5983;49.966;8.052;2022-12-29T05:39:07;1.63;;;0.80;;
11847;SDS011;5983;49.966;8.052;2022-12-29T05:41:34;1.00;;;0.90;;
11847;SDS011;5983;49.966;8.052;2022-12-29T05:44:01;3.20;;;1.20;;
11847;SDS011;5983;49.966;8.052;2022-12-29T05:46:28;2.50;;;1.37;;
11847;SDS011;5983;49.966;8.052;2022-12-29T05:48:57;2.67;;;1.20;;
11847;SDS011;5983;49.966;8.052;2022-12-29T05:51:24;1.97;;;0.87;;
11847;SDS011;5983;49.966;8.052;2022-12-29T05:53:51;1.40;;;0.90;;
11847;SDS011;5983;49.966;8.052;2022-12-29T05:56:18;3.20;;;0.70;;
11847;SDS011;5983;49.966;8.052;2022-12-29T05:58:45;3.87;;;1.00;;
11847;SDS011;5983;49.966;8.052;2022-12-29T06:01:12;3.03;;;0.77;;
11847;SDS011;5983;49.966;8.052;2022-12-29T06:03:39;4.27;;;1.13;;
11847;SDS011;5983;49.966;8.052;2022-12-29T06:06:07;1.80;;;1.00;;
11847;SDS011;5983;49.966;8.052;2022-12-29T06:08:34;2.53;;;0.73;;
11847;SDS011;5983;49.966;8.052;2022-12-29T06:11:01;2.33;;;0.87;;
11847;SDS011;5983;49.966;8.052;2022-12-29T06:13:28;4.13;;;1.33;;
11847;SDS011;5983;49.966;8.052;2022-12-29T06:15:55;3.13;;;0.60;;
11847;SDS011;5983;49.966;8.052;2022-12-29T06:18:22;3.23;;;1.00;;
11847;SDS011;5983;49.966;8.052;2022-12-29T06:20:49;1.13;;;0.77;;
11847;SDS011;5983;49.966;8.052;2022-12-29T06:23:17;0.70;;;0.60;;
11847;SDS011;5983;49.966;8.052;2022-12-29T06:25:44;0.70;;;0.70;;
11847;SDS011;5983;49.966;8.052;2022-12-29T06:28:13;2.43;;;1.00;;
11847;SDS011;5983;49.966;8.052;2022-12-29T06:30:42;2.00;;;0.60;;
11847;SDS011;5983;49.966;8.052;2022-12-29T06:33:10;2.60;;;0.93;;
11847;SDS011;5983;49.966;8.052;2022-12-29T06:35:37;1.57;;;0.70;;
11847;SDS011;5983;49.966;8.052;2022-12-29T06:38:04;2.27;;;0.77;;
11847;SDS011;5983;49.966;8.052;2022-12-29T06:40:33;2.27;;;0.90;;
11847;SDS011;5983;49.966;8.052;2022-12-29T06:43:00;2.23;;;1.00;;
11847;SDS011;5983;49.966;8.052;2022-12-29T06:45:27;5.53;;;1.10;;
11847;SDS011;5983;49.966;8.052;2022-12-29T06:47:53;1.87;;;0.87;;
11847;SDS011;5983;49.966;8.052;2022-12-29T06:50:21;1.27;;;0.73;;
11847;SDS011;5983;49.966;8.052;2022-12-29T06:52:48;1.80;;;1.03;;
11847;SDS011;5983;49.966;8.052;2022-12-29T06:55:14;1.23;;;0.90;;
11847;SDS011;5983;49.966;8.052;2022-12-29T06:57:43;2.33;;;1.17;;
11847;SDS011;5983;49.966;8.052;2022-12-29T07:00:10;4.27;;;1.20;;
11847;SDS011;5983;49.966;8.052;2022-12-29T07:02:39;1.23;;;0.90;;
11847;SDS011;5983;49.966;8.052;2022-12-29T07:05:06;3.37;;;1.30;;
11847;SDS011;5983;49.966;8.052;2022-12-29T07:07:35;3.60;;;1.10;;
11847;SDS011;5983;49.966;8.052;2022-12-29T07:10:02;5.40;;;1.03;;
11847;SDS011;5983;49.966;8.052;2022-12-29T07:12:29;2.07;;;1.27;;
11847;SDS011;5983;49.966;8.052;2022-12-29T07:14:58;1.57;;;1.00;;
11847;SDS011;5983;49.966;8.052;2022-12-29T07:17:25;3.77;;;1.27;;
11847;SDS011;5983;49.966;8.052;2022-12-29T07:19:52;3.00;;;1.23;;
11847;SDS011;5983;49.966;8.052;2022-12-29T07:22:19;4.67;;;1.50;;
11847;SDS011;5983;49.966;8.052;2022-12-29T07:24:45;2.20;;;1.03;;
11847;SDS011;5983;49.966;8.052;2022-12-29T07:27:12;2.10;;;1.37;;
11847;SDS011;5983;49.966;8.052;2022-12-29T07:29:40;2.73;;;1.13;;
11847;SDS011;5983;49.966;8.052;2022-12-29T07:32:08;5.90;;;1.20;;
11847;SDS011;5983;49.966;8.052;2022-12-29T07:34:35;2.37;;;1.10;;
11847;SDS011;5983;49.966;8.052;2022-12-29T07:37:02;4.70;;;1.53;;
11847;SDS011;5983;49.966;8.052;2022-12-29T07:39:29;5.17;;;1.27;;
11847;SDS011;5983;49.966;8.052;2022-12-29T07:41:56;3.77;;;1.30;;
11847;SDS011;5983;49.966;8.052;2022-12-29T07:44:22;2.37;;;1.67;;
11847;SDS011;5983;49.966;8.052;2022-12-29T07:46:49;2.90;;;1.60;;
11847;SDS011;5983;49.966;8.052;2022-12-29T07:49:18;3.83;;;1.30;;
11847;SDS011;5983;49.966;8.052;2022-12-29T07:51:45;2.90;;;1.83;;
11847;SDS011;5983;49.966;8.052;2022-12-29T07:54:12;3.03;;;1.70;;
11847;SDS011;5983;49.966;8.052;2022-12-29T07:56:39;3.73;;;1.77;;
11847;SDS011;5983;49.966;8.052;2022-12-29T07:59:06;5.90;;;2.27;;
11847;SDS011;5983;49.966;8.052;2022-12-29T08:01:33;4.37;;;1.57;;
11847;SDS011;5983;49.966;8.052;2022-12-29T08:04:00;4.80;;;1.57;;
11847;SDS011;5983;49.966;8.052;2022-12-29T08:06:28;2.07;;;1.70;;
11847;SDS011;5983;49.966;8.052;2022-12-29T08:08:59;7.27;;;3.00;;
11847;SDS011;5983;49.966;8.052;2022-12-29T08:11:26;4.60;;;1.73;;
11847;SDS011;5983;49.966;8.052;2022-12-29T08:13:54;5.20;;;2.63;;
11847;SDS011;5983;49.966;8.052;2022-12-29T08:16:20;6.57;;;1.53;;
11847;SDS011;5983;49.966;8.052;2022-12-29T08:18:47;4.83;;;1.63;;
11847;SDS011;5983;49.966;8.052;2022-12-29T08:21:14;2.60;;;1.53;;
11847;SDS011;5983;49.966;8.052;2022-12-29T08:23:43;2.67;;;1.80;;
11847;SDS011;5983;49.966;8.052;2022-12-29T08:26:10;1.63;;;1.40;;
11847;SDS011;5983;49.966;8.052;2022-12-29T08:28:37;2.20;;;1.50;;
11847;SDS011;5983;49.966;8.052;2022-12-29T08:31:04;2.00;;;1.40;;
11847;SDS011;5983;49.966;8.052;2022-12-29T08:33:31;3.90;;;2.00;;
11847;SDS011;5983;49.966;8.052;2022-12-29T08:35:59;3.27;;;1.83;;
11847;SDS011;5983;49.966;8.052;2022-12-29T08:38:26;4.00;;;1.90;;
11847;SDS011;5983;49.966;8.052;2022-12-29T08:40:56;2.03;;;1.80;;
11847;SDS011;5983;49.966;8.052;2022-12-29T08:43:24;5.60;;;1.80;;
11847;SDS011;5983;49.966;8.052;2022-12-29T08:45:51;2.80;;;2.10;;
11847;SDS011;5983;49.966;8.052;2022-12-29T08:48:18;4.87;;;1.80;;
11847;SDS011;5983;49.966;8.052;2022-12-29T08:50:47;4.00;;;2.00;;
11847;SDS011;5983;49.966;8.052;2022-12-29T08:53:15;3.03;;;1.83;;
11847;SDS011;5983;49.966;8.052;2022-12-29T08:55:44;3.67;;;1.80;;
11847;SDS011;5983;49.966;8.052;2022-12-29T08:58:12;3.77;;;1.67;;
11847;SDS011;5983;49.966;8.052;2022-12-29T09:00:41;1.90;;;1.70;;
11847;SDS011;5983;49.966;8.052;2022-12-29T09:03:08;4.23;;;2.17;;
11847;SDS011;5983;49.966;8.052;2022-12-29T09:05:35;2.10;;;1.60;;
11847;SDS011;5983;49.966;8.052;2022-12-29T09:08:06;5.93;;;1.90;;
11847;SDS011;5983;49.966;8.052;2022-12-29T09:10:34;4.00;;;2.07;;
11847;SDS011;5983;49.966;8.052;2022-12-29T09:13:01;2.80;;;1.90;;
11847;SDS011;5983;49.966;8.052;2022-12-29T09:15:29;4.10;;;2.43;;
11847;SDS011;5983;49.966;8.052;2022-12-29T09:17:56;4.63;;;2.13;;
11847;SDS011;5983;49.966;8.052;2022-12-29T09:20:23;3.50;;;2.17;;
11847;SDS011;5983;49.966;8.052;2022-12-29T09:22:50;3.50;;;2.30;;
11847;SDS011;5983;49.966;8.052;2022-12-29T09:25:17;3.93;;;3.07;;
11847;SDS011;5983;49.966;8.052;2022-12-29T09:27:44;4.00;;;2.30;;
11847;SDS011;5983;49.966;8.052;2022-12-29T09:30:12;2.40;;;1.20;;
11847;SDS011;5983;49.966;8.052;2022-12-29T09:32:41;3.50;;;1.60;;
11847;SDS011;5983;49.966;8.052;2022-12-29T09:35:08;6.10;;;1.50;;
11847;SDS011;5983;49.966;8.052;2022-12-29T09:37:35;3.43;;;2.60;;
11847;SDS011;5983;49.966;8.052;2022-12-29T09:40:03;3.03;;;1.50;;
11847;SDS011;5983;49.966;8.052;2022-12-29T09:42:32;2.20;;;1.10;;
11847;SDS011;5983;49.966;8.052;2022-12-29T09:45:10;5.83;;;1.80;;
11847;SDS011;5983;49.966;8.052;2022-12-29T09:47:44;1.93;;;1.00;;
11847;SDS011;5983;49.966;8.052;2022-12-29T09:50:15;2.07;;;1.23;;
11847;SDS011;5983;49.966;8.052;2022-12-29T09:52:50;1.20;;;1.00;;
11847;SDS011;5983;49.966;8.052;2022-12-29T09:55:25;1.13;;;0.70;;
11847;SDS011;5983;49.966;8.052;2022-12-29T09:58:04;4.50;;;1.40;;
11847;SDS011;5983;49.966;8.052;2022-12-29T10:00:41;1.63;;;0.90;;
11847;SDS011;5983;49.966;8.052;2022-12-29T10:03:18;0.90;;;0.60;;
11847;SDS011;5983;49.966;8.052;2022-12-29T10:05:48;0.90;;;0.57;;
11847;SDS011;5983;49.966;8.052;2022-12-29T10:08:29;0.50;;;0.50;;
11847;SDS011;5983;49.966;8.052;2022-12-29T10:11:06;2.40;;;0.77;;
11847;SDS011;5983;49.966;8.052;2022-12-29T10:13:52;4.87;;;0.90;;
11847;SDS011;5983;49.966;8.052;2022-12-29T10:16:40;2.80;;;0.50;;
11847;SDS011;5983;49.966;8.052;2022-12-29T10:19:24;0.30;;;0.30;;
11847;SDS011;5983;49.966;8.052;2022-12-29T10:22:27;1.20;;;0.30;;
11847;SDS011;5983;49.966;8.052;2022-12-29T10:25:11;1.33;;;0.43;;
11847;SDS011;5983;49.966;8.052;2022-12-29T10:27:43;0.73;;;0.40;;
11847;SDS011;5983;49.966;8.052;2022-12-29T10:30:15;0.70;;;0.40;;
11847;SDS011;5983;49.966;8.052;2022-12-29T10:32:45;1.07;;;0.67;;
11847;SDS011;5983;49.966;8.052;2022-12-29T10:35:21;0.53;;;0.30;;
11847;SDS011;5983;49.966;8.052;2022-12-29T10:37:52;0.40;;;0.40;;
11847;SDS011;5983;49.966;8.052;2022-12-29T10:40:27;2.20;;;0.47;;
11847;SDS011;5983;49.966;8.052;2022-12-29T10:43:04;0.60;;;0.30;;
11847;SDS011;5983;49.966;8.052;2022-12-29T10:45:50;0.90;;;0.30;;
11847;SDS011;5983;49.966;8.052;2022-12-29T10:48:20;2.00;;;0.47;;
11847;SDS011;5983;49.966;8.052;2022-12-29T10:50:53;0.27;;;0.23;;
11847;SDS011;5983;49.966;8.052;2022-12-29T10:53:26;0.80;;;0.30;;
11847;SDS011;5983;49.966;8.052;2022-12-29T10:56:01;1.73;;;0.53;;
11847;SDS011;5983;49.966;8.052;2022-12-29T10:58:37;1.10;;;0.40;;
11847;SDS011;5983;49.966;8.052;2022-12-29T11:01:07;1.23;;;0.70;;
11847;SDS011;5983;49.966;8.052;2022-12-29T11:03:41;1.07;;;0.50;;
11847;SDS011;5983;49.966;8.052;2022-12-29T11:06:26;0.57;;;0.30;;
11847;SDS011;5983;49.966;8.052;2022-12-29T11:08:56;3.83;;;0.50;;
11847;SDS011;5983;49.966;8.052;2022-12-29T11:11:28;1.20;;;0.47;;
11847;SDS011;5983;49.966;8.052;2022-12-29T11:14:02;2.27;;;0.33;;
11847;SDS011;5983;49.966;8.052;2022-12-29T11:16:39;0.77;;;0.47;;
11847;SDS011;5983;49.966;8.052;2022-12-29T11:19:19;1.47;;;0.40;;
11847;SDS011;5983;49.966;8.052;2022-12-29T11:21:49;1.17;;;0.80;;
11847;SDS011;5983;49.966;8.052;2022-12-29T11:24:18;2.10;;;0.40;;
11847;SDS011;5983;49.966;8.052;2022-12-29T11:26:49;2.60;;;0.50;;
11847;SDS011;5983;49.966;8.052;2022-12-29T11:29:23;1.33;;;0.70;;
11847;SDS011;5983;49.966;8.052;2022-12-29T11:31:53;2.73;;;0.70;;
11847;SDS011;5983;49.966;8.052;2022-12-29T11:34:24;1.40;;;0.57;;
11847;SDS011;5983;49.966;8.052;2022-12-29T11:37:00;0.87;;;0.60;;
11847;SDS011;5983;49.966;8.052;2022-12-29T11:39:32;2.00;;;0.47;;
11847;SDS011;5983;49.966;8.052;2022-12-29T11:42:05;0.87;;;0.30;;
11847;SDS011;5983;49.966;8.052;2022-12-29T11:44:42;1.23;;;0.50;;
11847;SDS011;5983;49.966;8.052;2022-12-29T11:47:13;1.63;;;0.87;;
11847;SDS011;5983;49.966;8.052;2022-12-29T11:49:52;2.77;;;1.20;;
11847;SDS011;5983;49.966;8.052;2022-12-29T11:52:25;1.30;;;0.40;;
11847;SDS011;5983;49.966;8.052;2022-12-29T11:54:58;1.90;;;0.73;;
11847;SDS011;5983;49.966;8.052;2022-12-29T11:57:29;4.70;;;1.00;;
11847;SDS011;5983;49.966;8.052;2022-12-29T12:00:01;0.93;;;0.30;;
11847;SDS011;5983;49.966;8.052;2022-12-29T12:02:42;1.80;;;0.47;;
11847;SDS011;5983;49.966;8.052;2022-12-29T12:05:20;0.97;;;0.40;;
11847;SDS011;5983;49.966;8.052;2022-12-29T12:07:59;1.77;;;0.60;;
11847;SDS011;5983;49.966;8.052;2022-12-29T12:10:37;1.23;;;0.40;;
11847;SDS011;5983;49.966;8.052;2022-12-29T12:13:14;3.27;;;0.60;;
11847;SDS011;5983;49.966;8.052;2022-12-29T12:15:49;1.90;;;0.40;;
11847;SDS011;5983;49.966;8.052;2022-12-29T12:18:30;2.43;;;0.40;;
11847;SDS011;5983;49.966;8.052;2022-12-29T12:21:12;1.80;;;0.50;;
11847;SDS011;5983;49.966;8.052;2022-12-29T12:23:56;1.50;;;0.50;;
11847;SDS011;5983;49.966;8.052;2022-12-29T12:26:44;1.23;;;0.40;;
11847;SDS011;5983;49.966;8.052;2022-12-29T12:29:24;2.27;;;0.47;;
11847;SDS011;5983;49.966;8.052;2022-12-29T12:32:02;1.07;;;0.53;;
11847;SDS011;5983;49.966;8.052;2022-12-29T12:34:38;2.30;;;0.93;;
11847;SDS011;5983;49.966;8.052;2022-12-29T12:37:15;3.00;;;0.80;;
11847;SDS011;5983;49.966;8.052;2022-12-29T12:40:24;1.73;;;0.60;;
11847;SDS011;5983;49.966;8.052;2022-12-29T12:43:24;1.83;;;0.70;;
11847;SDS011;5983;49.966;8.052;2022-12-29T12:46:10;0.60;;;0.37;;
11847;SDS011;5983;49.966;8.052;2022-12-29T12:48:59;1.93;;;0.67;;
11847;SDS011;5983;49.966;8.052;2022-12-29T12:51:50;0.87;;;0.40;;
11847;SDS011;5983;49.966;8.052;2022-12-29T12:54:35;4.30;;;0.53;;
11847;SDS011;5983;49.966;8.052;2022-12-29T12:57:34;1.50;;;0.60;;
11847;SDS011;5983;49.966;8.052;2022-12-29T13:00:19;3.37;;;0.40;;
11847;SDS011;5983;49.966;8.052;2022-12-29T13:02:51;3.07;;;0.80;;
11847;SDS011;5983;49.966;8.052;2022-12-29T13:05:42;3.80;;;0.50;;
11847;SDS011;5983;49.966;8.052;2022-12-29T13:08:41;1.43;;;0.60;;
11847;SDS011;5983;49.966;8.052;2022-12-29T13:11:49;0.97;;;0.57;;
11847;SDS011;5983;49.966;8.052;2022-12-29T13:14:38;3.70;;;0.90;;
11847;SDS011;5983;49.966;8.052;2022-12-29T13:17:20;1.60;;;0.60;;
11847;SDS011;5983;49.966;8.052;2022-12-29T13:19:57;2.50;;;0.60;;
11847;SDS011;5983;49.966;8.052;2022-12-29T13:22:38;1.20;;;0.57;;
11847;SDS011;5983;49.966;8.052;2022-12-29T13:25:27;0.50;;;0.40;;
11847;SDS011;5983;49.966;8.052;2022-12-29T13:28:06;2.30;;;0.73;;
11847;SDS011;5983;49.966;8.052;2022-12-29T13:30:47;1.73;;;0.63;;
11847;SDS011;5983;49.966;8.052;2022-12-29T13:33:28;5.87;;;0.80;;
11847;SDS011;5983;49.966;8.052;2022-12-29T13:36:08;2.50;;;0.70;;
11847;SDS011;5983;49.966;8.052;2022-12-29T13:38:48;3.53;;;1.27;;
11847;SDS011;5983;49.966;8.052;2022-12-29T13:41:29;2.93;;;1.13;;
11847;SDS011;5983;49.966;8.052;2022-12-29T13:44:01;4.10;;;1.13;;
11847;SDS011;5983;49.966;8.052;2022-12-29T13:46:33;1.50;;;1.33;;
11847;SDS011;5983;49.966;8.052;2022-12-29T13:49:07;2.70;;;0.90;;
11847;SDS011;5983;49.966;8.052;2022-12-29T13:51:42;2.57;;;0.70;;
11847;SDS011;5983;49.966;8.052;2022-12-29T13:54:17;1.20;;;0.57;;
11847;SDS011;5983;49.966;8.052;2022-12-29T13:57:02;3.60;;;0.80;;
11847;SDS011;5983;49.966;8.052;2022-12-29T13:59:39;2.63;;;0.67;;
11847;SDS011;5983;49.966;8.052;2022-12-29T14:02:25;7.40;;;1.90;;
11847;SDS011;5983;49.966;8.052;2022-12-29T14:05:03;3.30;;;0.90;;
11847;SDS011;5983;49.966;8.052;2022-12-29T14:07:56;1.73;;;0.70;;
11847;SDS011;5983;49.966;8.052;2022-12-29T14:10:29;2.00;;;0.97;;
11847;SDS011;5983;49.966;8.052;2022-12-29T14:13:02;1.87;;;0.60;;
11847;SDS011;5983;49.966;8.052;2022-12-29T14:15:31;1.87;;;0.77;;
11847;SDS011;5983;49.966;8.052;2022-12-29T14:18:12;2.60;;;0.80;;
11847;SDS011;5983;49.966;8.052;2022-12-29T14:20:51;2.40;;;0.80;;
11847;SDS011;5983;49.966;8.052;2022-12-29T14:23:29;1.87;;;0.87;;
11847;SDS011;5983;49.966;8.052;2022-12-29T14:26:15;2.07;;;0.97;;
11847;SDS011;5983;49.966;8.052;2022-12-29T14:31:57;2.53;;;0.60;;
11847;SDS011;5983;49.966;8.052;2022-12-29T14:34:30;3.10;;;0.77;;
11847;SDS011;5983;49.966;8.052;2022-12-29T14:37:17;1.50;;;0.53;;
11847;SDS011;5983;49.966;8.052;2022-12-29T14:40:02;4.00;;;0.83;;
11847;SDS011;5983;49.966;8.052;2022-12-29T14:42:32;4.10;;;0.90;;
11847;SDS011;5983;49.966;8.052;2022-12-29T14:45:01;1.53;;;0.63;;
11847;SDS011;5983;49.966;8.052;2022-12-29T14:47:33;4.70;;;1.00;;
11847;SDS011;5983;49.966;8.052;2022-12-29T14:50:05;4.93;;;0.87;;
11847;SDS011;5983;49.966;8.052;2022-12-29T14:52:42;2.90;;;0.70;;
11847;SDS011;5983;49.966;8.052;2022-12-29T14:58:05;2.27;;;0.60;;
11847;SDS011;5983;49.966;8.052;2022-12-29T15:00:40;3.20;;;0.60;;
11847;SDS011;5983;49.966;8.052;2022-12-29T15:03:12;2.93;;;0.87;;
11847;SDS011;5983;49.966;8.052;2022-12-29T15:05:48;2.67;;;0.60;;
11847;SDS011;5983;49.966;8.052;2022-12-29T15:08:19;2.17;;;0.63;;
11847;SDS011;5983;49.966;8.052;2022-12-29T15:10:52;2.60;;;0.67;;
11847;SDS011;5983;49.966;8.052;2022-12-29T15:13:32;5.67;;;1.47;;
11847;SDS011;5983;49.966;8.052;2022-12-29T15:16:01;3.63;;;0.60;;
11847;SDS011;5983;49.966;8.052;2022-12-29T15:18:29;1.80;;;0.57;;
11847;SDS011;5983;49.966;8.052;2022-12-29T15:21:00;1.47;;;0.70;;
11847;SDS011;5983;49.966;8.052;2022-12-29T15:23:31;3.67;;;0.80;;
11847;SDS011;5983;49.966;8.052;2022-12-29T15:26:03;2.87;;;0.60;;
11847;SDS011;5983;49.966;8.052;2022-12-29T15:28:36;2.73;;;0.73;;
11847;SDS011;5983;49.966;8.052;2022-12-29T15:31:08;3.73;;;0.93;;
11847;SDS011;5983;49.966;8.052;2022-12-29T15:33:41;2.67;;;0.80;;
11847;SDS011;5983;49.966;8.052;2022-12-29T15:36:14;3.40;;;0.80;;
11847;SDS011;5983;49.966;8.052;2022-12-29T15:38:47;3.47;;;0.77;;
11847;SDS011;5983;49.966;8.052;2022-12-29T15:41:19;3.07;;;0.80;;
11847;SDS011;5983;49.966;8.052;2022-12-29T15:44:20;4.30;;;0.97;;
11847;SDS011;5983;49.966;8.052;2022-12-29T15:46:54;2.47;;;0.83;;